createdAt,value
2023-04-15T00:02:18.976Z,84.43
2023-04-15T00:04:47.705Z,84.52
2023-04-15T00:07:16.354Z,84.48
2023-04-15T00:09:46.758Z,84.34
2023-04-15T00:12:14.414Z,84.47
2023-04-15T00:14:42.214Z,84.34
2023-04-15T00:17:09.860Z,84.41
2023-04-15T00:19:37.727Z,84.59
2023-04-15T00:22:06.247Z,84.65
2023-04-15T00:24:34.363Z,84.49
2023-04-15T00:27:02.218Z,84.40
2023-04-15T00:29:30.746Z,84.22
2023-04-15T00:31:58.471Z,84.51
2023-04-15T00:34:28.078Z,84.28
2023-04-15T00:36:55.842Z,84.44
2023-04-15T00:39:23.767Z,84.06
2023-04-15T00:41:52.031Z,84.30
2023-04-15T00:44:19.735Z,84.39
2023-04-15T00:46:48.828Z,84.21
2023-04-15T00:49:17.697Z,84.41
2023-04-15T00:51:48.304Z,84.30
2023-04-15T00:54:16.531Z,84.49
2023-04-15T00:56:45.799Z,84.27
2023-04-15T00:59:14.775Z,84.41
2023-04-15T01:01:43.147Z,83.98
2023-04-15T01:04:11.685Z,84.06
2023-04-15T01:06:39.639Z,84.09
2023-04-15T01:09:07.262Z,84.25
2023-04-15T01:11:35.440Z,84.01
2023-04-15T01:14:03.594Z,84.02
2023-04-15T01:16:31.718Z,84.12
2023-04-15T01:19:00.453Z,84.01
2023-04-15T01:21:28.402Z,84.14
2023-04-15T01:23:57.290Z,84.11
2023-04-15T01:26:25.301Z,84.13
2023-04-15T01:28:53.116Z,84.21
2023-04-15T01:31:21.024Z,84.00
2023-04-15T01:33:49.118Z,84.04
2023-04-15T01:36:16.960Z,83.87
2023-04-15T01:38:44.746Z,84.06
2023-04-15T01:41:13.946Z,84.16
2023-04-15T01:43:42.046Z,84.13
2023-04-15T01:46:09.836Z,83.87
2023-04-15T01:48:37.749Z,83.78
2023-04-15T01:51:05.914Z,83.91
2023-04-15T01:53:34.355Z,83.82
2023-04-15T01:56:02.521Z,83.88
2023-04-15T01:58:32.662Z,83.93
2023-04-15T02:01:00.878Z,84.05
2023-04-15T02:03:29.818Z,83.76
2023-04-15T02:05:57.915Z,83.96
2023-04-15T02:08:25.584Z,83.81
2023-04-15T02:10:53.415Z,83.78
2023-04-15T02:13:21.242Z,83.73
2023-04-15T02:15:50.068Z,84.12
2023-04-15T02:18:18.014Z,83.74
2023-04-15T02:20:47.016Z,83.75
2023-04-15T02:23:14.957Z,83.82
2023-04-15T02:25:53.765Z,83.90
2023-04-15T02:28:22.377Z,84.04
2023-04-15T02:30:54.562Z,83.50
2023-04-15T02:33:22.307Z,83.78
2023-04-15T02:35:50.011Z,83.89
2023-04-15T02:38:18.167Z,84.08
2023-04-15T02:40:46.324Z,83.57
2023-04-15T02:43:14.175Z,83.68
2023-04-15T02:45:43.587Z,83.73
2023-04-15T02:48:11.698Z,83.89
2023-04-15T02:50:40.887Z,83.71
2023-04-15T02:53:08.608Z,83.86
2023-04-15T02:55:36.549Z,83.63
2023-04-15T02:58:04.779Z,83.85
2023-04-15T03:00:32.788Z,83.61
2023-04-15T03:03:04.246Z,83.54
2023-04-15T03:05:32.709Z,83.36
2023-04-15T03:08:01.496Z,83.39
2023-04-15T03:10:29.358Z,83.50
2023-04-15T03:12:57.171Z,83.56
2023-04-15T03:15:25.085Z,83.58
2023-04-15T03:17:53.329Z,83.51
2023-04-15T03:20:21.450Z,83.36
2023-04-15T03:22:49.272Z,83.25
2023-04-15T03:25:19.173Z,83.12
2023-04-15T03:27:46.997Z,83.11
2023-04-15T03:30:15.383Z,82.99
2023-04-15T03:32:43.199Z,83.14
2023-04-15T03:35:10.925Z,82.91
2023-04-15T03:37:41.361Z,82.70
2023-04-15T03:40:10.016Z,82.73
2023-04-15T03:42:37.936Z,82.80
2023-04-15T03:45:06.704Z,82.73
2023-04-15T03:47:34.451Z,82.66
2023-04-15T03:50:05.092Z,82.34
2023-04-15T03:52:32.993Z,82.00
2023-04-15T03:55:00.915Z,82.21
2023-04-15T03:57:29.223Z,81.95
2023-04-15T03:59:56.884Z,82.02
2023-04-15T04:02:25.181Z,81.81
2023-04-15T04:04:53.300Z,81.62
2023-04-15T04:07:21.505Z,81.49
2023-04-15T04:09:49.224Z,81.49
2023-04-15T04:12:17.076Z,81.30
2023-04-15T04:14:45.007Z,81.04
2023-04-15T04:17:12.860Z,80.88
2023-04-15T04:19:40.710Z,80.82
2023-04-15T04:22:08.526Z,80.81
2023-04-15T04:24:36.613Z,80.91
2023-04-15T04:27:04.422Z,80.78
2023-04-15T04:29:32.070Z,80.34
2023-04-15T04:31:59.927Z,79.99
2023-04-15T04:34:29.891Z,79.85
2023-04-15T04:36:57.596Z,80.22
2023-04-15T04:39:25.592Z,79.79
2023-04-15T04:41:53.457Z,79.26
2023-04-15T04:44:21.228Z,79.57
2023-04-15T04:46:49.080Z,79.60
2023-04-15T04:49:16.741Z,79.91
2023-04-15T04:51:44.442Z,79.68
2023-04-15T04:54:12.160Z,79.27
2023-04-15T04:56:40.026Z,79.54
2023-04-15T04:59:07.828Z,79.22
2023-04-15T05:01:35.933Z,79.50
2023-04-15T05:04:07.928Z,79.36
2023-04-15T05:06:37.074Z,79.22
2023-04-15T05:09:04.875Z,79.19
2023-04-15T05:11:33.218Z,78.87
2023-04-15T05:14:02.480Z,78.95
2023-04-15T05:16:30.315Z,79.36
2023-04-15T05:18:58.135Z,78.18
2023-04-15T05:21:26.321Z,78.03
2023-04-15T05:23:54.052Z,77.84
2023-04-15T05:26:22.268Z,78.17
2023-04-15T05:28:51.544Z,78.21
2023-04-15T05:31:22.857Z,78.06
2023-04-15T05:33:51.104Z,77.50
2023-04-15T05:36:19.667Z,77.29
2023-04-15T05:38:47.651Z,77.33
2023-04-15T05:41:19.107Z,77.18
2023-04-15T05:43:47.626Z,77.42
2023-04-15T05:46:16.469Z,76.70
2023-04-15T05:48:44.558Z,77.50
2023-04-15T05:51:13.469Z,77.52
2023-04-15T05:53:41.825Z,77.65
2023-04-15T05:56:09.782Z,77.80
2023-04-15T05:58:37.741Z,78.22
2023-04-15T06:01:05.740Z,77.56
2023-04-15T06:03:33.748Z,77.81
2023-04-15T06:06:02.558Z,77.20
2023-04-15T06:08:30.375Z,76.46
2023-04-15T06:10:59.034Z,76.89
2023-04-15T06:13:27.335Z,76.47
2023-04-15T06:15:55.504Z,76.30
2023-04-15T06:18:23.210Z,76.49
2023-04-15T06:20:51.021Z,76.46
2023-04-15T06:23:18.745Z,76.62
2023-04-15T06:25:46.861Z,76.25
2023-04-15T06:28:14.532Z,75.85
2023-04-15T06:30:42.256Z,75.60
2023-04-15T06:33:10.866Z,76.23
2023-04-15T06:35:39.334Z,75.75
2023-04-15T06:38:07.282Z,76.06
2023-04-15T06:40:35.028Z,75.88
2023-04-15T06:43:02.912Z,76.22
2023-04-15T06:45:31.797Z,75.31
2023-04-15T06:47:59.711Z,75.60
2023-04-15T06:50:27.809Z,75.62
2023-04-15T06:52:56.310Z,75.55
2023-04-15T06:55:24.036Z,74.44
2023-04-15T06:57:51.836Z,75.55
2023-04-15T07:00:20.362Z,75.33
2023-04-15T07:02:48.346Z,74.96
2023-04-15T07:05:16.148Z,75.24
2023-04-15T07:07:43.935Z,74.94
2023-04-15T07:10:12.264Z,74.61
2023-04-15T07:12:40.074Z,74.76
2023-04-15T07:15:08.102Z,73.65
2023-04-15T07:17:36.263Z,74.33
2023-04-15T07:20:05.128Z,74.71
2023-04-15T07:22:33.200Z,74.75
2023-04-15T07:25:01.199Z,74.77
2023-04-15T07:27:28.917Z,74.80
2023-04-15T07:29:56.718Z,74.66
2023-04-15T07:32:24.481Z,74.22
2023-04-15T07:34:52.223Z,73.75
2023-04-15T07:37:20.124Z,73.20
2023-04-15T07:39:48.077Z,73.17
2023-04-15T07:42:15.909Z,72.95
2023-04-15T07:44:43.660Z,73.57
2023-04-15T07:47:12.002Z,73.41
2023-04-15T07:49:42.009Z,73.92
2023-04-15T07:52:09.953Z,73.34
2023-04-15T07:54:37.923Z,73.58
2023-04-15T07:57:05.589Z,73.62
2023-04-15T07:59:33.720Z,73.73
2023-04-15T08:02:01.485Z,73.15
2023-04-15T08:04:29.691Z,73.41
2023-04-15T08:06:58.185Z,73.69
2023-04-15T08:09:27.177Z,72.85
2023-04-15T08:11:55.090Z,72.45
2023-04-15T08:14:22.875Z,72.83
2023-04-15T08:16:50.872Z,72.04
2023-04-15T08:19:18.683Z,72.09
2023-04-15T08:21:46.901Z,72.15
2023-04-15T08:24:14.636Z,71.92
2023-04-15T08:26:42.455Z,72.00
2023-04-15T08:29:10.359Z,72.06
2023-04-15T08:31:38.161Z,71.79
2023-04-15T08:34:05.899Z,70.90
2023-04-15T08:36:33.720Z,70.60
2023-04-15T08:39:02.330Z,70.48
2023-04-15T08:41:38.141Z,71.66
2023-04-15T08:44:06.142Z,70.19
2023-04-15T08:46:35.020Z,69.69
2023-04-15T08:49:05.443Z,69.30
2023-04-15T08:51:34.118Z,70.26
2023-04-15T08:54:02.889Z,69.08
2023-04-15T08:56:33.163Z,69.40
2023-04-15T08:59:01.679Z,69.06
2023-04-15T09:01:30.006Z,68.03
2023-04-15T09:03:59.296Z,69.12
2023-04-15T09:06:27.414Z,69.74
2023-04-15T09:08:55.453Z,69.85
2023-04-15T09:11:23.427Z,70.21
2023-04-15T09:13:51.714Z,69.57
2023-04-15T09:16:19.818Z,68.70
2023-04-15T09:18:47.579Z,67.52
2023-04-15T09:21:17.618Z,68.71
2023-04-15T09:23:58.238Z,68.08
2023-04-15T09:26:37.106Z,68.12
2023-04-15T09:29:15.521Z,67.14
2023-04-15T09:31:43.783Z,66.56
2023-04-15T09:34:11.804Z,66.70
2023-04-15T09:36:50.846Z,66.25
2023-04-15T09:39:19.015Z,67.43
2023-04-15T09:41:47.012Z,68.03
2023-04-15T09:44:25.452Z,68.04
2023-04-15T09:46:53.206Z,67.81
2023-04-15T09:49:21.244Z,67.84
2023-04-15T09:52:03.979Z,67.59
2023-04-15T09:54:38.242Z,67.33
2023-04-15T09:57:08.038Z,66.08
2023-04-15T09:59:36.719Z,67.20
2023-04-15T10:02:06.621Z,66.70
2023-04-15T10:04:37.794Z,66.36
2023-04-15T10:07:06.432Z,66.53
2023-04-15T10:09:36.839Z,66.43
2023-04-15T10:12:05.462Z,64.77
2023-04-15T10:14:39.012Z,65.42
2023-04-15T10:17:08.478Z,66.54
2023-04-15T10:19:38.433Z,64.81
2023-04-15T10:22:06.875Z,65.92
2023-04-15T10:24:35.140Z,66.08
2023-04-15T10:27:06.624Z,66.15
2023-04-15T10:29:35.364Z,64.59
2023-04-15T10:32:04.304Z,64.18
2023-04-15T10:34:32.651Z,63.25
2023-04-15T10:37:04.420Z,63.76
2023-04-15T10:39:38.989Z,64.66
2023-04-15T10:42:09.379Z,62.83
2023-04-15T10:44:43.282Z,62.33
2023-04-15T10:47:13.947Z,63.14
2023-04-15T10:49:47.033Z,63.23
2023-04-15T10:52:18.020Z,62.87
2023-04-15T10:54:45.987Z,63.51
2023-04-15T10:57:24.121Z,62.16
2023-04-15T10:59:58.765Z,62.39
2023-04-15T11:02:39.326Z,61.61
2023-04-15T11:05:07.934Z,62.11
2023-04-15T11:07:35.923Z,62.29
2023-04-15T11:10:13.695Z,61.27
2023-04-15T11:12:42.151Z,61.58
2023-04-15T11:15:29.921Z,62.37
2023-04-15T11:18:01.434Z,62.52
2023-04-15T11:20:30.008Z,62.46
2023-04-15T11:23:12.146Z,62.01
2023-04-15T11:25:44.400Z,61.15
2023-04-15T11:28:13.217Z,60.94
2023-04-15T11:30:42.622Z,61.64
2023-04-15T11:33:15.138Z,61.93
2023-04-15T11:35:43.074Z,61.75
2023-04-15T11:38:12.767Z,61.81
2023-04-15T11:40:41.241Z,61.39
2023-04-15T11:46:38.940Z,62.22
2023-04-15T11:49:06.742Z,61.04
2023-04-15T11:51:35.230Z,61.47
2023-04-15T11:54:04.072Z,61.36
2023-04-15T11:56:32.107Z,59.80
2023-04-15T11:59:00.237Z,60.83
2023-04-15T12:01:46.925Z,59.31
2023-04-15T12:04:25.211Z,59.87
2023-04-15T12:06:53.544Z,59.88
2023-04-15T12:09:21.769Z,59.97
2023-04-15T12:11:51.261Z,59.23
2023-04-15T12:14:28.530Z,60.17
2023-04-15T12:17:02.095Z,59.91
2023-04-15T12:19:34.826Z,59.65
2023-04-15T12:22:05.385Z,59.88
2023-04-15T12:24:34.312Z,59.17
2023-04-15T12:27:09.847Z,59.96
2023-04-15T12:29:39.179Z,60.07
2023-04-15T12:32:12.550Z,59.66
2023-04-15T12:34:50.991Z,59.75
2023-04-15T12:37:58.587Z,59.37
2023-04-15T12:40:27.329Z,58.91
2023-04-15T12:42:56.641Z,59.20
2023-04-15T12:45:25.015Z,60.47
2023-04-15T12:47:52.740Z,59.98
2023-04-15T12:50:20.559Z,59.71
2023-04-15T12:52:48.479Z,59.38
2023-04-15T12:55:17.388Z,59.76
2023-04-15T12:57:45.104Z,60.06
2023-04-15T13:00:13.367Z,60.27
2023-04-15T13:02:41.302Z,59.78
2023-04-15T13:05:09.376Z,60.18
2023-04-15T13:07:37.451Z,59.96
2023-04-15T13:10:06.015Z,59.78
2023-04-15T13:12:36.544Z,60.12
2023-04-15T13:15:05.764Z,60.01
2023-04-15T13:17:33.568Z,58.10
2023-04-15T13:20:01.501Z,58.45
2023-04-15T13:22:29.266Z,59.67
2023-04-15T13:24:56.943Z,59.42
2023-04-15T13:27:24.712Z,59.45
2023-04-15T13:29:53.047Z,59.12
2023-04-15T13:32:20.932Z,57.86
2023-04-15T13:34:48.833Z,58.07
2023-04-15T13:37:16.666Z,57.87
2023-04-15T13:39:44.702Z,58.73
2023-04-15T13:42:12.340Z,59.33
2023-04-15T13:44:40.261Z,59.43
2023-04-15T13:47:08.279Z,58.51
2023-04-15T13:49:36.078Z,58.99
2023-04-15T13:52:04.021Z,58.10
2023-04-15T13:54:37.142Z,58.37
2023-04-15T13:57:06.678Z,57.98
2023-04-15T13:59:35.172Z,58.68
2023-04-15T14:02:03.265Z,57.21
2023-04-15T14:04:32.120Z,57.10
2023-04-15T14:07:00.064Z,57.24
2023-04-15T14:09:28.542Z,58.27
2023-04-15T14:11:56.936Z,57.85
2023-04-15T14:14:24.805Z,57.79
2023-04-15T14:16:52.700Z,58.21
2023-04-15T14:19:20.602Z,58.09
2023-04-15T14:21:48.683Z,57.88
2023-04-15T14:24:16.721Z,57.83
2023-04-15T14:26:45.243Z,58.25
2023-04-15T14:29:13.152Z,57.55
2023-04-15T14:31:41.032Z,57.35
2023-04-15T14:34:09.803Z,57.14
2023-04-15T14:36:38.188Z,57.16
2023-04-15T14:39:06.342Z,57.19
2023-04-15T14:41:35.465Z,57.53
2023-04-15T14:44:03.555Z,57.19
2023-04-15T14:46:31.416Z,57.33
2023-04-15T14:48:59.505Z,57.21
2023-04-15T14:51:27.481Z,57.40
2023-04-15T14:53:55.238Z,57.71
2023-04-15T14:56:23.068Z,57.17
2023-04-15T14:58:53.259Z,57.37
2023-04-15T15:01:21.679Z,57.02
2023-04-15T15:03:49.961Z,57.31
2023-04-15T15:06:18.361Z,56.98
2023-04-15T15:08:46.426Z,57.12
2023-04-15T15:11:14.246Z,57.04
2023-04-15T15:13:42.339Z,57.18
2023-04-15T15:16:11.854Z,56.90
2023-04-15T15:18:41.050Z,57.04
2023-04-15T15:21:08.944Z,56.57
2023-04-15T15:23:37.173Z,56.73
2023-04-15T15:26:05.456Z,56.48
2023-04-15T15:28:34.850Z,56.64
2023-04-15T15:31:02.871Z,56.89
2023-04-15T15:33:32.011Z,56.79
2023-04-15T15:36:00.059Z,56.83
2023-04-15T15:38:28.643Z,56.81
2023-04-15T15:40:56.408Z,56.33
2023-04-15T15:43:24.563Z,56.47
2023-04-15T15:45:55.619Z,56.77
2023-04-15T15:48:24.084Z,56.33
2023-04-15T15:50:52.564Z,56.28
2023-04-15T15:53:21.162Z,56.52
2023-04-15T15:55:53.174Z,56.49
2023-04-15T15:58:21.914Z,56.69
2023-04-15T16:00:49.631Z,56.47
2023-04-15T16:03:17.756Z,56.52
2023-04-15T16:05:46.141Z,56.25
2023-04-15T16:08:13.959Z,56.44
2023-04-15T16:10:42.063Z,56.21
2023-04-15T16:13:10.885Z,56.42
2023-04-15T16:15:39.040Z,56.35
2023-04-15T16:18:08.208Z,55.87
2023-04-15T16:20:36.044Z,56.15
2023-04-15T16:23:13.477Z,56.17
2023-04-15T16:25:42.986Z,56.03
2023-04-15T16:28:25.034Z,55.96
2023-04-15T16:30:56.343Z,56.31
2023-04-15T16:33:24.218Z,56.29
2023-04-15T16:35:52.403Z,56.35
2023-04-15T16:38:20.547Z,56.16
2023-04-15T16:40:48.362Z,56.66
2023-04-15T16:43:16.063Z,56.54
2023-04-15T16:45:45.446Z,56.71
2023-04-15T16:48:13.185Z,56.72
2023-04-15T16:50:41.047Z,56.68
2023-04-15T16:53:09.083Z,56.27
2023-04-15T16:55:36.937Z,56.47
2023-04-15T16:58:07.214Z,56.39
2023-04-15T17:00:37.291Z,56.56
2023-04-15T17:03:06.132Z,56.49
2023-04-15T17:05:35.520Z,56.72
2023-04-15T17:08:05.628Z,56.69
2023-04-15T17:10:33.539Z,56.48
2023-04-15T17:13:01.472Z,56.93
2023-04-15T17:15:29.499Z,57.19
2023-04-15T17:17:57.530Z,57.65
2023-04-15T17:20:26.728Z,58.03
2023-04-15T17:22:54.861Z,57.89
2023-04-15T17:25:23.268Z,58.12
2023-04-15T17:27:51.377Z,57.76
2023-04-15T17:30:19.433Z,57.89
2023-04-15T17:32:47.404Z,57.97
2023-04-15T17:35:15.379Z,57.90
2023-04-15T17:37:43.242Z,58.24
2023-04-15T17:40:12.107Z,58.57
2023-04-15T17:42:40.347Z,58.94
2023-04-15T17:45:09.150Z,58.36
2023-04-15T17:47:37.427Z,59.13
2023-04-15T17:50:06.091Z,58.51
2023-04-15T17:52:34.075Z,58.66
2023-04-15T17:55:02.668Z,58.89
2023-04-15T17:57:31.067Z,58.92
2023-04-15T17:59:58.862Z,59.08
2023-04-15T18:02:27.217Z,59.08
2023-04-15T18:04:56.204Z,59.37
2023-04-15T18:07:24.160Z,59.26
2023-04-15T18:09:53.253Z,59.54
2023-04-15T18:12:21.035Z,59.55
2023-04-15T18:14:48.855Z,59.77
2023-04-15T18:17:16.993Z,60.07
2023-04-15T18:19:45.948Z,60.36
2023-04-15T18:22:14.400Z,60.64
2023-04-15T18:24:42.643Z,60.97
2023-04-15T18:27:10.881Z,61.08
2023-04-15T18:29:39.028Z,61.48
2023-04-15T18:32:07.395Z,61.62
2023-04-15T18:34:35.766Z,61.80
2023-04-15T18:37:03.902Z,62.51
2023-04-15T18:39:31.667Z,62.77
2023-04-15T18:41:59.914Z,63.00
2023-04-15T18:44:28.612Z,63.24
2023-04-15T18:46:56.593Z,63.62
2023-04-15T18:49:24.383Z,63.89
2023-04-15T18:51:52.454Z,64.02
2023-04-15T18:54:20.433Z,64.23
2023-04-15T18:56:48.389Z,64.37
2023-04-15T18:59:29.386Z,64.59
2023-04-15T19:02:03.696Z,64.63
2023-04-15T19:04:32.205Z,65.17
2023-04-15T19:06:59.996Z,65.14
2023-04-15T19:09:29.028Z,65.36
2023-04-15T19:11:57.953Z,65.72
2023-04-15T19:14:25.977Z,65.25
2023-04-15T19:16:53.754Z,65.57
2023-04-15T19:19:22.526Z,65.70
2023-04-15T19:21:50.640Z,66.28
2023-04-15T19:24:19.836Z,66.01
2023-04-15T19:26:50.290Z,66.03
2023-04-15T19:29:18.772Z,65.89
2023-04-15T19:31:47.467Z,65.94
2023-04-15T19:34:16.062Z,66.33
2023-04-15T19:36:43.851Z,66.50
2023-04-15T19:39:11.754Z,66.86
2023-04-15T19:41:39.934Z,66.37
2023-04-15T19:44:07.757Z,67.07
2023-04-15T19:46:35.820Z,66.98
2023-04-15T19:49:04.430Z,67.07
2023-04-15T19:51:32.492Z,67.13
2023-04-15T19:54:00.632Z,67.67
2023-04-15T19:56:29.535Z,67.13
2023-04-15T19:58:57.572Z,67.26
2023-04-15T20:01:25.796Z,67.41
2023-04-15T20:03:54.809Z,67.79
2023-04-15T20:06:22.985Z,67.63
2023-04-15T20:08:52.081Z,67.42
2023-04-15T20:11:20.341Z,67.89
2023-04-15T20:13:48.104Z,67.48
2023-04-15T20:16:16.191Z,68.04
2023-04-15T20:18:44.207Z,67.82
2023-04-15T20:21:13.015Z,67.82
2023-04-15T20:23:41.294Z,67.99
2023-04-15T20:26:09.087Z,68.22
2023-04-15T20:28:36.834Z,68.07
2023-04-15T20:31:04.918Z,68.34
2023-04-15T20:33:32.786Z,68.34
2023-04-15T20:36:00.587Z,68.19
2023-04-15T20:38:28.485Z,67.91
2023-04-15T20:40:58.072Z,68.18
2023-04-15T20:43:26.245Z,68.26
2023-04-15T20:45:57.543Z,68.34
2023-04-15T20:48:26.424Z,68.68
2023-04-15T20:50:54.142Z,68.69
2023-04-15T20:53:22.012Z,68.61
2023-04-15T20:55:49.783Z,68.78
2023-04-15T20:58:17.596Z,69.14
2023-04-15T21:00:45.522Z,68.97
2023-04-15T21:03:13.675Z,69.05
2023-04-15T21:05:42.315Z,69.18
2023-04-15T21:08:10.189Z,69.43
2023-04-15T21:10:40.709Z,69.03
2023-04-15T21:13:08.697Z,69.22
2023-04-15T21:15:36.747Z,69.33
2023-04-15T21:18:04.770Z,69.64
2023-04-15T21:20:32.649Z,69.72
2023-04-15T21:23:00.543Z,69.76
2023-04-15T21:25:28.827Z,70.04
2023-04-15T21:27:56.562Z,69.66
2023-04-15T21:30:25.756Z,69.94
2023-04-15T21:32:53.799Z,69.96
2023-04-15T21:35:21.812Z,69.99
2023-04-15T21:37:50.016Z,70.14
2023-04-15T21:40:19.649Z,70.30
2023-04-15T21:42:49.233Z,70.48
2023-04-15T21:45:17.524Z,70.29
2023-04-15T21:48:05.845Z,70.25
2023-04-15T21:50:33.810Z,70.32
2023-04-15T21:53:01.955Z,70.42
2023-04-15T21:55:30.647Z,70.57
2023-04-15T21:57:58.631Z,70.52
2023-04-15T22:00:26.472Z,70.47
2023-04-15T22:02:54.674Z,70.35
2023-04-15T22:05:22.631Z,70.64
2023-04-15T22:07:50.938Z,70.52
2023-04-15T22:10:20.908Z,70.59
2023-04-15T22:12:49.333Z,70.63
2023-04-15T22:15:17.445Z,70.82
2023-04-15T22:17:45.818Z,70.60
2023-04-15T22:20:13.768Z,70.80
2023-04-15T22:22:43.971Z,70.84
2023-04-15T22:25:16.105Z,71.07
2023-04-15T22:27:44.064Z,71.11
2023-04-15T22:30:12.554Z,71.26
2023-04-15T22:32:40.419Z,71.29
2023-04-15T22:35:09.034Z,71.40
2023-04-15T22:37:36.938Z,71.43
2023-04-15T22:40:05.280Z,71.46
2023-04-15T22:42:33.270Z,71.61
2023-04-15T22:45:01.590Z,72.03
2023-04-15T22:47:29.595Z,72.31
2023-04-15T22:49:57.333Z,72.42
2023-04-15T22:52:30.556Z,72.34
2023-04-15T22:54:59.091Z,72.57
2023-04-15T22:57:28.352Z,72.53
2023-04-15T22:59:56.117Z,72.56
2023-04-15T23:02:24.250Z,72.69
2023-04-15T23:04:52.355Z,72.66
2023-04-15T23:07:20.233Z,72.72
2023-04-15T23:09:47.990Z,72.66
2023-04-15T23:12:16.217Z,72.91
2023-04-15T23:14:43.965Z,73.07
2023-04-15T23:17:11.877Z,72.63
2023-04-15T23:19:39.775Z,72.63
2023-04-15T23:22:10.701Z,72.99
2023-04-15T23:24:38.709Z,72.96
2023-04-15T23:27:06.614Z,72.95
2023-04-15T23:29:34.345Z,73.14
2023-04-15T23:32:02.396Z,73.31
2023-04-15T23:34:30.152Z,73.11
2023-04-15T23:36:58.164Z,73.06
2023-04-15T23:39:26.069Z,72.97
2023-04-15T23:41:53.756Z,72.98
2023-04-15T23:44:21.617Z,72.91
2023-04-15T23:46:49.642Z,72.78
2023-04-15T23:49:20.085Z,72.99
2023-04-15T23:51:48.154Z,73.02
2023-04-15T23:54:17.989Z,72.84
2023-04-15T23:56:46.320Z,72.74
2023-04-15T23:59:14.089Z,72.82
